METAR Data
IDs: Format: Raw Decoded Include TAF

Data at: 1519 UTC 21 Sep 2018

KFET 211455Z AUTO 32017G21KT 10SM SCT025 15/10 A3020 RMK AO2 T01540096
KFET 211435Z AUTO 32014G18KT 10SM SCT025 15/10 A3019 RMK AO2 T01520095
KFET 211415Z AUTO 30013KT 10SM CLR 15/10 A3018 RMK AO2 T01460101
KFET 211355Z AUTO 29011G14KT 10SM CLR 14/10 A3018 RMK AO2 T01360102
KFET 211335Z AUTO 29007KT 10SM CLR 13/10 A3017 RMK AO2 T01300101
KFET 211315Z AUTO 28010KT 10SM CLR 13/10 A3016 RMK AO2 T01320101
KFET 211255Z AUTO 27007KT 10SM CLR 13/10 A3016 RMK AO2 T01310102
KFET 211235Z AUTO 28007KT 10SM CLR 13/10 A3015 RMK AO2 T01330101
KFET 211215Z AUTO 27008KT 10SM CLR 14/10 A3013 RMK AO2 T01360104
KFET 211155Z AUTO 27008KT 10SM CLR 14/11 A3013 RMK AO2 70049 T01390107 10165 20139
KFET 211135Z AUTO 27011KT 10SM CLR 14/11 A3011 RMK AO2 T01420112
KFET 211115Z AUTO 27009KT 10SM CLR 14/12 A3010 RMK AO2 T01440116
KFET 211055Z AUTO 27011KT 10SM CLR 15/12 A3008 RMK AO2 T01460120
KFET 211035Z AUTO 27009KT 10SM CLR 15/12 A3007 RMK AO2 T01460122
KFET 211015Z AUTO 27008KT 10SM CLR 15/13 A3006 RMK AO2 T01450125
KFET 210955Z AUTO 27007KT 10SM CLR 15/13 A3005 RMK AO2 T01460125
KFET 210935Z AUTO 27007KT 10SM CLR 15/13 A3004 RMK AO2 T01450125
KFET 210915Z AUTO 28009KT 10SM CLR 15/13 A3003 RMK AO2 T01470125
KFET 210855Z AUTO 27008KT 10SM CLR 15/13 A3001 RMK AO2 T01500126
KFET 210835Z AUTO 28009KT 10SM CLR 15/13 A3001 RMK AO2 T01510127
KFET 210815Z AUTO 28011KT 10SM CLR 15/13 A3000 RMK AO2 T01510130
KFET 210755Z AUTO 27005KT 10SM CLR 15/13 A2999 RMK AO2 T01500130
KFET 210735Z AUTO 29007KT 10SM CLR 15/13 A2999 RMK AO2 T01510127
KFET 210715Z AUTO 28007KT 10SM CLR 16/13 A2998 RMK AO2 T01550127
KFET 210655Z AUTO 28008KT 10SM SCT023 16/13 A2998 RMK AO2 T01560130
KFET 210635Z AUTO 29009KT 10SM SCT023 16/13 A2997 RMK AO2 T01600132
KFET 210615Z AUTO 28010KT 10SM BKN023 16/14 A2996 RMK AO2 T01630135
KFET 210555Z AUTO 30010KT 10SM SCT023 17/14 A2993 RMK AO2 60033 T01650141 10245 20165 403450165
KFET 210535Z AUTO 30009KT 10SM SCT025 17/14 A2993 RMK AO2 T01670141
KFET 210515Z AUTO 31011KT 10SM SCT016 BKN023 OVC055 18/15 A2993 RMK AO2 T01750145
KFET 210455Z AUTO 32013G21KT 10SM SCT016 SCT020 BKN029 18/16 A2992 RMK AO2 T01840155
KFET 210435Z AUTO 30010KT 10SM BKN027 OVC060 19/16 A2989 RMK AO2 T01900164
KFET 210415Z AUTO 30013G16KT 10SM SCT015 OVC027 19/17 A2988 RMK AO2 T01930167
KFET 210355Z AUTO 31006KT 10SM BKN013 BKN019 OVC030 20/18 A2986 RMK AO2 P0003 T01980181
KFET 210335Z AUTO 32015G19KT 10SM -RA BKN013 OVC019 20/19 A2985 RMK AO2 P0003 T02020187
KFET 210315Z AUTO 31011G16KT 7SM -RA BKN014 BKN021 OVC100 21/19 A2982 RMK AO2 P0003 T02090192
KFET 210300Z AUTO 29007KT 7SM RA SCT021 SCT080 OVC110 21/20 A2983 RMK AO2 T02140200
KFET 210235Z AUTO 26004KT 7SM RA SCT075 OVC100 22/20 A2982 RMK AO2 P0010 T02150200
KFET 210215Z AUTO 28007KT 7SM RA SCT075 BKN100 BKN110 22/20 A2981 RMK AO2 P0005 T02200201
KFET 210155Z AUTO 26008KT 7SM RA SCT075 OVC100 22/20 A2981 RMK AO2 P0012 T02200202
KFET 210135Z AUTO 29006KT 7SM RA SCT090 OVC110 22/20 A2977 RMK AO2 P0006 T02220200
KFET 210115Z AUTO 28005KT 7SM RA OVC090 23/19 A2975 RMK AO2 LTG DSNT SE THRU SW P0002 T02280192
KFET 210055Z AUTO 26006KT 10SM OVC090 23/19 A2973 RMK AO2 LTG DSNT SE AND SW P0003 T02270190
KFET 210035Z AUTO 25003KT 10SM -RA SCT050 SCT070 OVC100 23/19 A2972 RMK AO2 LTG DSNT E THRU SW P0003 T02340188
KFET 210015Z AUTO 23007KT 10SM -VCTSRA SCT055 BKN080 OVC090 24/19 A2971 RMK AO2 LTG DSNT E THRU S P0002 T02370192
KFET 202355Z AUTO 28009KT 10SM -VCTSDZ SCT055 BKN065 OVC100 25/21 A2966 RMK AO2 LTG DSNT ALQS P0001 60016 T02450213 10345 20245
KFET 202335Z AUTO 30005KT 10SM SCT065 BKN075 BKN120 25/21 A2965 RMK AO2 LTG DSNT E THRU W P0001 T02510210
KFET 202315Z AUTO 26006KT 10SM -RA SCT036 SCT050 BKN075 25/20 A2964 RMK AO2 LTG DSNT N AND S P0001 T02480204
KFET 202255Z AUTO 17004KT 10SM VCTS SCT060 BKN075 BKN095 25/20 A2964 RMK AO2 LTG DSNT NE THRU SW P0015 T02480197
KFET 202235Z AUTO 24006G17KT 10SM -RA SCT013 BKN070 OVC085 25/19 A2964 RMK AO2 LTG DSNT ALQS P0015 T02480192
KFET 202215Z AUTO 26014G37KT 2SM RA SCT007 BKN055 OVC070 25/20 A2965 RMK AO2 LTG DSNT ALQS P0015 T02500202
KFET 202155Z AUTO 27018G25KT 10SM VCTS BKN075 BKN090 BKN110 33/17 A2963 RMK AO2 LTG DSNT SW THRU N T03300166
KFET 202135Z AUTO 21016G22KT 10SM BKN080 BKN085 BKN110 34/16 A2960 RMK AO2 LTG DSNT NE AND NW T03410159
KFET 202115Z AUTO 20015G27KT 10SM OVC070 34/16 A2961 RMK AO2 LTG DSNT W THRU NE T03370158
KFET 202055Z AUTO 21019G27KT 10SM SCT065 BKN090 34/16 A2962 RMK AO2 LTG DSNT SW T03400161
KFET 202035Z AUTO 20021G30KT 10SM BKN065 BKN080 34/17 A2962 RMK AO2 T03440165
KFET 202015Z AUTO 19015G28KT 10SM SCT070 SCT075 SCT090 34/17 A2963 RMK AO2 T03400166
KFET 201955Z AUTO 19018G28KT 10SM CLR 34/17 A2963 RMK AO2 T03430165
KFET 201935Z AUTO 20019G28KT 10SM CLR 34/17 A2964 RMK AO2 T03410166
KFET 201915Z AUTO 18015G25KT 10SM CLR 34/17 A2965 RMK AO2 T03360169
KFET 201855Z AUTO 18017G26KT 10SM CLR 33/17 A2965 RMK AO2 T03340171
KFET 201835Z AUTO 19019G23KT 10SM CLR 33/18 A2967 RMK AO2 T03320176
KFET 201815Z AUTO 19016G23KT 10SM CLR 33/18 A2967 RMK AO2 T03260182
KFET 201755Z AUTO 18014G27KT 10SM SCT080 32/18 A2968 RMK AO2 T03230183 10325 20245
KFET 201735Z AUTO 17011G22KT 10SM BKN080 32/19 A2969 RMK AO2 T03230191
KFET 201715Z AUTO 18016G23KT 10SM SCT080 32/19 A2970 RMK AO2 T03150189
KFET 201655Z AUTO 20013G21KT 10SM SCT080 31/19 A2971 RMK AO2 T03100189
KFET 201635Z AUTO 18015G20KT 10SM OVC080 30/19 A2972 RMK AO2 T03020189
KFET 201615Z AUTO 18012G19KT 10SM OVC080 30/19 A2972 RMK AO2 T02980188
KFET 201555Z AUTO 18014G22KT 10SM BKN080 30/19 A2973 RMK AO2 T02980185
KFET 201535Z AUTO 20016G21KT 10SM CLR 30/19 A2973 RMK AO2 T02950186
KFET 201515Z AUTO 19013G20KT 10SM CLR 29/19 A2973 RMK AO2 T02900185
KFET 201455Z AUTO 18013G18KT 10SM CLR 28/19 A2973 RMK AO2 LTG DSNT N T02820185
KFET 201435Z AUTO 17011G17KT 10SM CLR 28/19 A2974 RMK AO2 T02760189
KFET 201415Z AUTO 18011G15KT 10SM CLR 27/19 A2974 RMK AO2 LTG DSNT N T02690189
KFET 201355Z AUTO 17009KT 10SM SCT080 26/19 A2975 RMK AO2 T02600188
KFET 201335Z AUTO 17010KT 10SM SCT090 25/19 A2975 RMK AO2 LTG DSNT NW T02540188
KFET 201315Z AUTO 16007G15KT 10SM CLR 25/19 A2975 RMK AO2 T02460185
KFET 201255Z AUTO 17008KT 10SM CLR 25/19 A2975 RMK AO2 T02450185
KFET 201235Z AUTO 17008G16KT 10SM SCT090 25/18 A2975 RMK AO2 LTG DSNT NE T02450184
KFET 201215Z AUTO 16011G15KT 10SM SCT080 SCT110 25/18 A2975 RMK AO2 LTG DSNT N T02470184
KFET 201155Z AUTO 16010KT 10SM SCT080 BKN110 25/18 A2975 RMK AO2 70040 T02480184 10265 20246
KFET 201135Z AUTO 15008KT 10SM BKN080 BKN100 25/19 A2976 RMK AO2 T02480185
KFET 201115Z AUTO 15007KT 10SM SCT090 25/18 A2977 RMK AO2 LTG DSNT N T02480184
KFET 201055Z AUTO 16007KT 10SM OVC090 25/19 A2977 RMK AO2 T02480185
KFET 201035Z AUTO 16007KT 10SM BKN090 25/19 A2977 RMK AO2 T02470185
KFET 201015Z AUTO 16007KT 10SM SCT080 BKN090 25/18 A2977 RMK AO2 T02490183
KFET 200955Z AUTO 16007KT 10SM OVC080 25/19 A2978 RMK AO2 T02500185
KFET 200935Z AUTO 16008KT 10SM BKN080 25/19 A2978 RMK AO2 T02480185
KFET 200915Z AUTO 16007KT 10SM CLR 25/19 A2978 RMK AO2 T02480185
KFET 200855Z AUTO 16008KT 10SM SCT095 25/19 A2978 RMK AO2 T02500185
KFET 200835Z AUTO 16008KT 10SM SCT080 BKN095 25/19 A2979 RMK AO2 T02540185
KFET 200815Z AUTO 16008KT 10SM SCT080 SCT095 25/19 A2979 RMK AO2 T02540185
KFET 200755Z AUTO 16007KT 10SM BKN095 26/19 A2979 RMK AO2 T02560185
KFET 200735Z AUTO 16009G15KT 10SM BKN085 26/19 A2979 RMK AO2 T02600185
KFET 200715Z AUTO 16009G14KT 10SM BKN085 26/19 A2980 RMK AO2 T02600185
KFET 200655Z AUTO 16009G14KT 10SM BKN085 26/19 A2980 RMK AO2 T02620185
KFET 200635Z AUTO 16009KT 10SM SCT085 27/18 A2981 RMK AO2 T02650184
KFET 200615Z AUTO 16009KT 10SM SCT085 26/19 A2981 RMK AO2 T02620185
KFET 200555Z AUTO 16010G14KT 10SM CLR 26/19 A2981 RMK AO2 T02610185 10310 20261 403310195
KFET 200535Z AUTO 16010KT 10SM CLR 26/19 A2981 RMK AO2 T02630186
KFET 200515Z AUTO 16009KT 10SM CLR 27/19 A2982 RMK AO2 T02660187
KFET 200455Z AUTO 15011G15KT 10SM CLR 27/19 A2981 RMK AO2 LTG DSNT N T02660187
KFET 200435Z AUTO 15008KT 10SM SCT080 27/19 A2981 RMK AO2 T02700187
KFET 200415Z AUTO 15008KT 10SM SCT080 27/19 A2981 RMK AO2 LTG DSNT N T02720185
KFET 200355Z AUTO 15009KT 10SM CLR 27/19 A2981 RMK AO2 T02720187
KFET 200335Z AUTO 15009KT 10SM SCT070 SCT100 28/19 A2981 RMK AO2 T02760186